Parrish, Illinois
Current Conditions -  °F | °C
As of 1:35 PM on Friday 24 Oct 2014 (Local Time) from KHSB Reporting Station
Broken Clouds Broken Clouds  
Wind Chill: 68°   Ceiling: 3100
Heat Index: 68°   Visibility: 10mi
Dew Point: 55°   Wind: 3mph
Humidity: 63%   Direction: 260°W
Pressure: 30.09"   Gusts: NA
Location:  37.8635°N, 88.7619°W
Report Text: KHSB 241835Z AUTO 26003KT 10SM BKN031 20/13 A3009 RMK AO2 T02010129
Loading
Personal Weather Stations






























Interactive Weather Map
Tropical Storm Tracking
New forecast layout! Learn more

10-Day Weather Forecast

Advertisements
Track Severe Weather on mobile